createdAt,value
2019-02-08T00:00:44.557Z,6.13
2019-02-08T00:02:44.496Z,6.12
2019-02-08T00:03:44.467Z,6.11
2019-02-08T00:04:44.406Z,6.15
2019-02-08T00:05:44.543Z,6.16
2019-02-08T00:06:44.986Z,6.19
2019-02-08T00:07:44.412Z,6.13
2019-02-08T00:09:44.464Z,6.19
2019-02-08T00:10:44.282Z,6.13
2019-02-08T00:11:44.599Z,6.12
2019-02-08T00:12:44.230Z,6.12
2019-02-08T00:13:44.458Z,6.15
2019-02-08T00:14:44.207Z,6.11
2019-02-08T00:15:45.239Z,6.09
2019-02-08T00:16:44.161Z,6.09
2019-02-08T00:17:44.162Z,6.06
2019-02-08T00:19:44.079Z,6.11
2019-02-08T00:20:44.330Z,6.08
2019-02-08T00:21:45.678Z,6.03
2019-02-08T00:22:43.926Z,6.06
2019-02-08T00:23:44.038Z,6.08
2019-02-08T00:24:43.857Z,6.08
2019-02-08T00:25:43.930Z,6.05
2019-02-08T00:26:44.123Z,5.98
2019-02-08T00:28:43.836Z,6.00
2019-02-08T00:29:43.848Z,6.03
2019-02-08T00:30:43.726Z,6.02
2019-02-08T00:31:43.752Z,5.95
2019-02-08T00:32:44.028Z,6.11
2019-02-08T00:33:43.789Z,6.11
2019-02-08T00:34:43.779Z,5.95
2019-02-08T00:35:43.733Z,6.03
2019-02-08T00:36:43.558Z,6.08
2019-02-08T00:37:43.540Z,6.11
2019-02-08T00:38:44.277Z,6.13
2019-02-08T00:39:45.087Z,6.13
2019-02-08T00:40:43.634Z,6.09
2019-02-08T00:41:43.607Z,6.09
2019-02-08T00:42:43.540Z,6.09
2019-02-08T00:43:43.579Z,6.15
2019-02-08T00:44:43.790Z,6.13
2019-02-08T00:45:43.457Z,6.13
2019-02-08T00:46:43.422Z,6.13
2019-02-08T00:47:43.919Z,6.16
2019-02-08T00:48:43.368Z,6.11
2019-02-08T00:49:43.327Z,6.18
2019-02-08T00:50:43.738Z,6.08
2019-02-08T00:51:44.091Z,6.12
2019-02-08T00:52:43.167Z,6.15
2019-02-08T00:53:43.420Z,6.15
2019-02-08T00:54:43.334Z,6.12
2019-02-08T00:55:44.200Z,6.12
2019-02-08T00:57:43.491Z,6.16
2019-02-08T00:58:43.017Z,6.27
2019-02-08T00:59:43.034Z,6.09
2019-02-08T01:00:43.041Z,6.13
2019-02-08T01:01:42.937Z,6.15
2019-02-08T01:02:42.905Z,6.13
2019-02-08T01:04:43.170Z,6.12
2019-02-08T01:05:43.052Z,6.13
2019-02-08T01:06:42.882Z,6.13
2019-02-08T01:07:42.852Z,6.15
2019-02-08T01:08:43.141Z,6.09
2019-02-08T01:09:42.891Z,6.12
2019-02-08T01:10:42.790Z,6.12
2019-02-08T01:11:43.205Z,6.11
2019-02-08T01:12:42.654Z,6.18
2019-02-08T01:13:42.678Z,6.15
2019-02-08T01:14:42.717Z,6.12
2019-02-08T01:15:43.013Z,6.08
2019-02-08T01:16:44.378Z,6.08
2019-02-08T01:17:42.889Z,6.13
2019-02-08T01:19:42.887Z,6.06
2019-02-08T01:20:42.552Z,6.13
2019-02-08T01:21:42.523Z,6.12
2019-02-08T01:22:42.539Z,6.06
2019-02-08T01:25:42.669Z,6.11
2019-02-08T01:26:42.727Z,6.09
2019-02-08T01:27:42.281Z,6.12
2019-02-08T01:28:42.317Z,6.11
2019-02-08T01:29:42.232Z,6.13
2019-02-08T01:30:42.295Z,6.16
2019-02-08T01:31:42.256Z,6.18
2019-02-08T01:32:42.223Z,6.08
2019-02-08T01:33:42.458Z,6.18
2019-02-08T01:34:42.226Z,6.11
2019-02-08T01:35:42.178Z,6.13
2019-02-08T01:36:42.204Z,6.08
2019-02-08T01:37:42.037Z,6.11
2019-02-08T01:38:42.005Z,6.05
2019-02-08T01:39:42.224Z,6.11
2019-02-08T01:40:42.560Z,6.13
2019-02-08T01:41:41.948Z,6.13
2019-02-08T01:42:41.985Z,6.12
2019-02-08T01:45:41.922Z,6.09
2019-02-08T01:47:41.794Z,6.08
2019-02-08T01:48:41.831Z,6.11
2019-02-08T01:49:41.788Z,6.18
2019-02-08T01:50:41.707Z,6.13
2019-02-08T01:52:42.013Z,6.06
2019-02-08T01:53:48.355Z,6.11
2019-02-08T01:54:41.697Z,6.05
2019-02-08T01:55:41.580Z,6.13
2019-02-08T01:57:41.731Z,6.13
2019-02-08T01:59:41.889Z,6.15
2019-02-08T02:00:41.716Z,6.18
2019-02-08T02:01:41.821Z,6.15
2019-02-08T02:02:41.579Z,6.13
2019-02-08T02:03:41.442Z,6.09
2019-02-08T02:04:41.398Z,6.19
2019-02-08T02:05:41.775Z,6.15
2019-02-08T02:06:41.327Z,6.12
2019-02-08T02:07:41.279Z,6.18
2019-02-08T02:08:41.258Z,6.12
2019-02-08T02:09:41.300Z,6.19
2019-02-08T02:10:41.299Z,6.16
2019-02-08T02:11:41.591Z,6.12
2019-02-08T02:14:41.161Z,6.15
2019-02-08T02:15:41.083Z,6.18
2019-02-08T02:16:41.180Z,6.15
2019-02-08T02:17:41.673Z,6.09
2019-02-08T02:19:41.021Z,6.15
2019-02-08T02:20:40.955Z,6.13
2019-02-08T02:21:41.139Z,6.11
2019-02-08T02:22:41.405Z,6.12
2019-02-08T02:23:41.220Z,6.08
2019-02-08T02:24:41.436Z,6.19
2019-02-08T02:26:41.158Z,6.13
2019-02-08T02:27:40.851Z,6.12
2019-02-08T02:28:40.758Z,6.15
2019-02-08T02:29:40.864Z,6.09
2019-02-08T02:30:40.785Z,6.13
2019-02-08T02:31:41.363Z,6.15
2019-02-08T02:32:40.687Z,6.05
2019-02-08T02:34:40.701Z,6.06
2019-02-08T02:35:40.705Z,6.02
2019-02-08T02:36:40.632Z,6.06
2019-02-08T02:37:40.717Z,6.06
2019-02-08T02:38:40.830Z,6.06
2019-02-08T02:39:40.559Z,6.06
2019-02-08T02:40:40.454Z,6.00
2019-02-08T02:41:40.538Z,5.98
2019-02-08T02:42:40.417Z,6.11
2019-02-08T02:43:40.430Z,6.08
2019-02-08T02:44:40.471Z,6.00
2019-02-08T02:45:40.712Z,6.05
2019-02-08T02:46:40.309Z,6.12
2019-02-08T02:47:40.401Z,6.05
2019-02-08T02:48:40.261Z,6.09
2019-02-08T02:50:40.292Z,6.12
2019-02-08T02:51:40.193Z,6.18
2019-02-08T02:52:40.586Z,6.12
2019-02-08T02:53:40.294Z,6.09
2019-02-08T02:54:40.219Z,6.09
2019-02-08T02:55:40.165Z,6.06
2019-02-08T02:56:40.162Z,6.08
2019-02-08T02:57:40.123Z,6.13
2019-02-08T02:58:40.097Z,6.11
2019-02-08T02:59:40.370Z,6.06
2019-02-08T03:00:40.039Z,6.09
2019-02-08T03:01:40.015Z,6.05
2019-02-08T03:02:39.967Z,6.12
2019-02-08T03:03:39.960Z,6.08
2019-02-08T03:05:39.891Z,6.08
2019-02-08T03:06:40.127Z,6.13
2019-02-08T03:07:39.793Z,6.11
2019-02-08T03:08:39.946Z,6.08
2019-02-08T03:10:39.884Z,6.13
2019-02-08T03:12:40.451Z,6.12
2019-02-08T03:13:39.710Z,6.18
2019-02-08T03:14:39.789Z,6.16
2019-02-08T03:15:39.863Z,6.13
2019-02-08T03:16:39.610Z,6.11
2019-02-08T03:17:39.557Z,6.13
2019-02-08T03:18:39.978Z,6.12
2019-02-08T03:19:39.492Z,6.09
2019-02-08T03:20:39.524Z,6.11
2019-02-08T03:21:39.513Z,6.13
2019-02-08T03:22:39.494Z,6.13
2019-02-08T03:23:39.470Z,6.13
2019-02-08T03:24:39.778Z,6.11
2019-02-08T03:25:39.526Z,6.16
2019-02-08T03:26:39.310Z,6.18
2019-02-08T03:27:39.287Z,6.13
2019-02-08T03:28:39.337Z,6.19
2019-02-08T03:29:39.319Z,6.28
2019-02-08T03:30:39.638Z,6.24
2019-02-08T03:31:39.291Z,6.24
2019-02-08T03:32:39.261Z,6.19
2019-02-08T03:33:39.209Z,6.19
2019-02-08T03:34:39.190Z,6.24
2019-02-08T03:35:39.314Z,6.18
2019-02-08T03:36:39.409Z,6.24
2019-02-08T03:38:39.152Z,6.30
2019-02-08T03:39:39.001Z,6.34
2019-02-08T03:40:38.969Z,6.28
2019-02-08T03:41:39.017Z,6.38
2019-02-08T03:42:39.287Z,6.34
2019-02-08T03:43:38.913Z,6.40
2019-02-08T03:45:38.924Z,6.32
2019-02-08T03:46:38.838Z,6.32
2019-02-08T03:47:38.856Z,6.35
2019-02-08T03:48:39.188Z,6.34
2019-02-08T03:49:39.137Z,6.37
2019-02-08T03:50:38.765Z,6.21
2019-02-08T03:51:38.697Z,6.18
2019-02-08T03:52:38.667Z,6.27
2019-02-08T03:53:38.797Z,6.12
2019-02-08T03:55:38.868Z,6.12
2019-02-08T03:56:39.218Z,6.16
2019-02-08T03:57:38.619Z,6.16
2019-02-08T03:58:38.598Z,6.11
2019-02-08T03:59:38.578Z,6.15
2019-02-08T04:00:38.605Z,6.25
2019-02-08T04:02:38.739Z,6.28
2019-02-08T04:03:38.465Z,6.18
2019-02-08T04:04:38.445Z,6.11
2019-02-08T04:05:38.421Z,6.37
2019-02-08T04:07:38.354Z,6.25
2019-02-08T04:09:38.783Z,6.19
2019-02-08T04:10:38.247Z,6.31
2019-02-08T04:11:38.348Z,6.24
2019-02-08T04:12:38.345Z,6.16
2019-02-08T04:17:38.215Z,6.35
2019-02-08T04:18:38.251Z,6.31
2019-02-08T04:19:38.377Z,6.35
2019-02-08T04:20:38.060Z,6.38
2019-02-08T04:21:38.020Z,6.34
2019-02-08T04:22:38.105Z,6.38
2019-02-08T04:23:37.905Z,6.43
2019-02-08T04:24:38.235Z,6.42
2019-02-08T04:25:37.856Z,6.38
2019-02-08T04:26:37.916Z,6.38
2019-02-08T04:27:37.854Z,6.43
2019-02-08T04:28:37.783Z,6.43
2019-02-08T04:29:37.756Z,6.46
2019-02-08T04:31:37.725Z,6.43
2019-02-08T04:32:37.725Z,6.43
2019-02-08T04:33:37.844Z,6.43
2019-02-08T04:34:37.733Z,6.43
2019-02-08T04:35:37.712Z,6.43
2019-02-08T04:36:37.965Z,6.45
2019-02-08T04:37:37.565Z,6.46
2019-02-08T04:39:37.834Z,6.46
2019-02-08T04:40:37.491Z,6.47
2019-02-08T04:41:37.536Z,6.43
2019-02-08T04:42:37.769Z,6.38
2019-02-08T04:44:37.381Z,6.38
2019-02-08T04:45:37.479Z,6.38
2019-02-08T04:46:37.422Z,6.40
2019-02-08T04:47:37.382Z,6.43
2019-02-08T04:48:37.593Z,6.42
2019-02-08T04:49:37.364Z,6.52
2019-02-08T04:50:37.240Z,6.46
2019-02-08T04:51:37.342Z,6.47
2019-02-08T04:52:37.191Z,6.47
2019-02-08T04:53:37.170Z,6.42
2019-02-08T04:54:38.580Z,6.53
2019-02-08T04:55:37.158Z,6.53
2019-02-08T04:56:37.118Z,6.52
2019-02-08T04:57:37.212Z,6.61
2019-02-08T04:58:37.108Z,6.67
2019-02-08T04:59:37.058Z,6.63
2019-02-08T05:00:37.365Z,6.57
2019-02-08T05:01:37.044Z,6.63
2019-02-08T05:02:37.013Z,6.64
2019-02-08T05:04:36.990Z,6.73
2019-02-08T05:05:37.078Z,6.68
2019-02-08T05:06:37.246Z,6.67
2019-02-08T05:07:36.926Z,6.68
2019-02-08T05:08:36.970Z,6.65
2019-02-08T05:09:36.902Z,6.67
2019-02-08T05:10:36.863Z,6.71
2019-02-08T05:11:36.836Z,6.75
2019-02-08T05:12:36.903Z,6.70
2019-02-08T05:13:37.178Z,6.71
2019-02-08T05:14:37.159Z,6.73
2019-02-08T05:15:36.670Z,6.75
2019-02-08T05:16:36.598Z,6.71
2019-02-08T05:17:36.752Z,6.71
2019-02-08T05:18:36.560Z,6.79
2019-02-08T05:19:36.828Z,6.74
2019-02-08T05:20:36.501Z,6.70
2019-02-08T05:21:36.798Z,6.74
2019-02-08T05:22:36.551Z,6.74
2019-02-08T05:24:36.562Z,6.79
2019-02-08T05:25:37.948Z,6.70
2019-02-08T05:26:36.746Z,6.81
2019-02-08T05:27:37.265Z,6.81
2019-02-08T05:29:36.310Z,6.82
2019-02-08T05:30:36.259Z,6.75
2019-02-08T05:31:36.374Z,6.82
2019-02-08T05:32:36.282Z,6.85
2019-02-08T05:33:36.609Z,6.89
2019-02-08T05:34:36.262Z,6.85
2019-02-08T05:35:36.138Z,6.79
2019-02-08T05:36:36.179Z,6.75
2019-02-08T05:37:36.199Z,6.78
2019-02-08T05:38:36.219Z,6.79
2019-02-08T05:39:37.460Z,6.74
2019-02-08T05:40:36.047Z,6.79
2019-02-08T05:41:36.258Z,6.70
2019-02-08T05:42:35.980Z,6.75
2019-02-08T05:43:35.942Z,6.79
2019-02-08T05:44:35.925Z,6.71
2019-02-08T05:45:36.247Z,6.73
2019-02-08T05:46:35.877Z,6.73
2019-02-08T05:47:35.919Z,6.75
2019-02-08T05:48:35.907Z,6.70
2019-02-08T05:49:35.884Z,6.74
2019-02-08T05:50:35.856Z,6.61
2019-02-08T05:54:35.694Z,6.57
2019-02-08T05:55:35.664Z,6.60
2019-02-08T05:56:35.618Z,6.56
2019-02-08T05:57:35.686Z,6.42
2019-02-08T05:59:36.146Z,6.40
2019-02-08T06:01:35.563Z,6.27
2019-02-08T06:02:35.542Z,6.32
2019-02-08T06:03:35.893Z,6.31
2019-02-08T06:04:35.780Z,6.32
2019-02-08T06:05:35.416Z,6.31
2019-02-08T06:06:35.431Z,6.18
2019-02-08T06:07:35.421Z,6.13
2019-02-08T06:08:35.414Z,6.11
2019-02-08T06:09:35.552Z,6.15
2019-02-08T06:10:35.688Z,6.15
2019-02-08T06:11:35.262Z,6.05
2019-02-08T06:13:35.322Z,6.08
2019-02-08T06:16:35.539Z,5.97
2019-02-08T06:17:35.566Z,5.93
2019-02-08T06:18:35.339Z,5.90
2019-02-08T06:19:35.383Z,5.95
2019-02-08T06:20:35.109Z,5.80
2019-02-08T06:21:35.117Z,5.73
2019-02-08T06:22:35.412Z,5.61
2019-02-08T06:23:35.192Z,5.66
2019-02-08T06:24:36.268Z,5.70
2019-02-08T06:25:35.108Z,5.66
2019-02-08T06:26:34.986Z,5.69
2019-02-08T06:27:36.926Z,5.62
2019-02-08T06:29:35.112Z,5.57
2019-02-08T06:30:34.846Z,5.55
2019-02-08T06:31:34.774Z,5.61
2019-02-08T06:32:34.807Z,5.58
2019-02-08T06:33:34.750Z,5.54
2019-02-08T06:34:34.752Z,5.58
2019-02-08T06:36:34.710Z,5.58
2019-02-08T06:37:34.762Z,5.57
2019-02-08T06:38:34.802Z,5.54
2019-02-08T06:39:34.596Z,5.54
2019-02-08T06:40:34.595Z,5.48
2019-02-08T06:41:34.809Z,5.41
2019-02-08T06:42:34.505Z,5.59
2019-02-08T06:43:34.463Z,5.39
2019-02-08T06:44:34.431Z,5.39
2019-02-08T06:45:34.457Z,5.41
2019-02-08T06:46:34.516Z,5.44
2019-02-08T06:47:34.676Z,5.50
2019-02-08T06:48:35.542Z,5.47
2019-02-08T06:49:34.313Z,5.44
2019-02-08T06:50:34.574Z,5.51
2019-02-08T06:51:34.302Z,5.55
2019-02-08T06:52:34.298Z,5.50
2019-02-08T06:53:34.293Z,5.61
2019-02-08T06:54:34.174Z,5.58
2019-02-08T06:55:34.452Z,5.51
2019-02-08T06:56:34.137Z,5.55
2019-02-08T06:57:34.166Z,5.52
2019-02-08T06:58:34.071Z,5.52
2019-02-08T06:59:34.056Z,5.59
2019-02-08T07:00:34.730Z,5.55
2019-02-08T07:01:34.108Z,5.57
2019-02-08T07:02:34.275Z,5.55
2019-02-08T07:03:34.451Z,5.58
2019-02-08T07:04:33.938Z,5.50
2019-02-08T07:05:33.940Z,5.54
2019-02-08T07:06:33.930Z,5.65
2019-02-08T07:08:34.135Z,5.65
2019-02-08T07:09:34.050Z,5.58
2019-02-08T07:10:33.878Z,5.58
2019-02-08T07:11:33.933Z,5.59
2019-02-08T07:12:33.724Z,5.66
2019-02-08T07:15:35.499Z,5.59
2019-02-08T07:16:33.622Z,5.65
2019-02-08T07:17:33.995Z,5.67
2019-02-08T07:18:33.757Z,5.67
2019-02-08T07:19:34.141Z,5.72
2019-02-08T07:20:34.373Z,5.73
2019-02-08T07:22:33.767Z,5.79
2019-02-08T07:23:33.475Z,5.84
2019-02-08T07:26:33.378Z,5.88
2019-02-08T07:27:33.924Z,5.95
2019-02-08T07:28:34.286Z,5.93
2019-02-08T07:29:33.393Z,5.95
2019-02-08T07:30:33.371Z,6.00
2019-02-08T07:31:33.352Z,5.97
2019-02-08T07:32:33.301Z,6.05
2019-02-08T07:33:33.630Z,6.02
2019-02-08T07:34:33.163Z,6.03
2019-02-08T07:35:33.203Z,6.11
2019-02-08T07:36:33.236Z,6.25
2019-02-08T07:37:33.297Z,6.19
2019-02-08T07:40:33.790Z,6.18
2019-02-08T07:43:33.505Z,6.13
2019-02-08T07:44:33.027Z,6.12
2019-02-08T07:45:33.053Z,6.13
2019-02-08T07:46:33.349Z,6.11
2019-02-08T07:47:32.975Z,6.18
2019-02-08T07:48:32.922Z,6.09
2019-02-08T07:49:33.437Z,6.12
2019-02-08T07:50:32.870Z,6.09
2019-02-08T07:51:34.095Z,6.11
2019-02-08T07:53:33.102Z,6.05
2019-02-08T07:54:32.683Z,6.11
2019-02-08T07:55:32.769Z,6.06
2019-02-08T07:56:32.769Z,6.09
2019-02-08T07:57:32.611Z,6.09
2019-02-08T07:59:32.933Z,6.09
2019-02-08T08:00:32.616Z,6.08
2019-02-08T08:01:32.543Z,6.05
2019-02-08T08:02:32.583Z,6.08
2019-02-08T08:03:32.552Z,6.13
2019-02-08T08:04:32.509Z,6.13
2019-02-08T08:05:32.846Z,6.03
2019-02-08T08:06:33.081Z,6.08
2019-02-08T08:07:33.213Z,6.03
2019-02-08T08:08:32.851Z,6.05
2019-02-08T08:09:32.594Z,6.09
2019-02-08T08:10:32.423Z,6.11
2019-02-08T08:11:32.757Z,6.02
2019-02-08T08:12:32.251Z,6.16
2019-02-08T08:13:32.216Z,6.11
2019-02-08T08:14:33.058Z,6.11
2019-02-08T08:16:32.171Z,6.08
2019-02-08T08:17:32.179Z,6.08
2019-02-08T08:18:32.540Z,6.06
2019-02-08T08:19:32.189Z,6.05
2019-02-08T08:20:32.062Z,6.11
2019-02-08T08:21:32.218Z,6.11
2019-02-08T08:22:32.007Z,6.08
2019-02-08T08:23:32.151Z,6.12
2019-02-08T08:24:33.581Z,6.13
2019-02-08T08:25:34.070Z,6.16
2019-02-08T08:26:31.981Z,6.11
2019-02-08T08:28:31.964Z,6.13
2019-02-08T08:29:31.942Z,6.19
2019-02-08T08:31:31.778Z,6.28
2019-02-08T08:32:31.751Z,6.25
2019-02-08T08:33:31.765Z,6.35
2019-02-08T08:34:31.801Z,6.35
2019-02-08T08:35:31.753Z,6.32
2019-02-08T08:36:32.525Z,6.34
2019-02-08T08:37:31.776Z,6.40
2019-02-08T08:38:31.702Z,6.46
2019-02-08T08:39:31.593Z,6.43
2019-02-08T08:40:31.586Z,6.34
2019-02-08T08:41:31.603Z,6.35
2019-02-08T08:42:31.883Z,6.38
2019-02-08T08:43:31.562Z,6.50
2019-02-08T08:44:31.551Z,6.38
2019-02-08T08:46:31.661Z,6.46
2019-02-08T08:47:33.007Z,6.43
2019-02-08T08:48:31.530Z,6.47
2019-02-08T08:49:31.439Z,6.47
2019-02-08T08:50:31.530Z,6.55
2019-02-08T08:51:31.299Z,6.63
2019-02-08T08:53:31.777Z,6.61
2019-02-08T08:54:31.299Z,6.65
2019-02-08T08:55:31.435Z,6.56
2019-02-08T08:58:31.166Z,6.78
2019-02-08T09:01:31.062Z,6.64
2019-02-08T09:02:31.946Z,6.75
2019-02-08T09:03:31.869Z,6.81
2019-02-08T09:05:31.395Z,6.74
2019-02-08T09:06:31.028Z,6.74
2019-02-08T09:07:31.001Z,6.79
2019-02-08T09:09:30.974Z,7.03
2019-02-08T09:10:30.967Z,7.00
2019-02-08T09:11:31.360Z,7.06
2019-02-08T09:12:30.822Z,7.06
2019-02-08T09:13:30.771Z,7.03
2019-02-08T09:14:32.331Z,7.01
2019-02-08T09:15:30.738Z,7.10
2019-02-08T09:17:31.136Z,7.10
2019-02-08T09:18:30.669Z,7.11
2019-02-08T09:19:30.722Z,7.08
2019-02-08T09:20:30.627Z,7.11
2019-02-08T09:21:30.587Z,7.11
2019-02-08T09:22:30.587Z,7.13
2019-02-08T09:23:30.954Z,7.15
2019-02-08T09:24:30.604Z,7.16
2019-02-08T09:25:30.491Z,7.18
2019-02-08T09:26:30.533Z,7.07
2019-02-08T09:27:30.442Z,7.16
2019-02-08T09:28:30.440Z,7.13
2019-02-08T09:29:30.800Z,7.13
2019-02-08T09:30:30.705Z,7.19
2019-02-08T09:31:30.458Z,7.13
2019-02-08T09:33:30.406Z,7.01
2019-02-08T09:36:30.408Z,7.06
2019-02-08T09:37:30.578Z,7.03
2019-02-08T09:38:30.192Z,7.06
2019-02-08T09:39:30.214Z,7.03
2019-02-08T09:40:30.146Z,7.04
2019-02-08T09:41:30.629Z,7.00
2019-02-08T09:42:30.211Z,7.01
2019-02-08T09:43:30.136Z,7.08
2019-02-08T09:46:30.091Z,7.03
2019-02-08T09:47:30.570Z,7.03
2019-02-08T09:48:30.334Z,6.89
2019-02-08T09:49:30.185Z,6.91
2019-02-08T09:50:29.991Z,6.89
2019-02-08T09:51:30.108Z,6.93
2019-02-08T09:53:30.288Z,6.89
2019-02-08T09:54:29.894Z,6.96
2019-02-08T09:55:29.881Z,6.81
2019-02-08T09:56:29.828Z,6.81
2019-02-08T09:57:29.763Z,6.81
2019-02-08T09:58:30.096Z,6.82
2019-02-08T09:59:30.097Z,6.83
2019-02-08T10:00:29.764Z,6.83
2019-02-08T10:01:29.868Z,6.89
2019-02-08T10:02:30.061Z,6.88
2019-02-08T10:03:30.219Z,6.88
2019-02-08T10:05:30.379Z,7.03
2019-02-08T10:06:30.747Z,6.96
2019-02-08T10:07:29.615Z,7.01
2019-02-08T10:08:29.586Z,7.04
2019-02-08T10:09:29.462Z,7.00
2019-02-08T10:10:29.989Z,7.11
2019-02-08T10:12:29.486Z,7.19
2019-02-08T10:13:29.993Z,7.24
2019-02-08T10:14:29.732Z,7.21
2019-02-08T10:15:29.657Z,7.25
2019-02-08T10:16:29.301Z,7.26
2019-02-08T10:17:29.656Z,7.31
2019-02-08T10:18:29.264Z,7.36
2019-02-08T10:21:29.199Z,7.54
2019-02-08T10:23:29.495Z,7.66
2019-02-08T10:24:29.109Z,7.86
2019-02-08T10:25:29.098Z,7.86
2019-02-08T10:26:29.339Z,7.84
2019-02-08T10:27:29.173Z,7.95
2019-02-08T10:28:29.071Z,7.96
2019-02-08T10:29:29.392Z,8.02
2019-02-08T10:30:29.100Z,8.01
2019-02-08T10:31:29.232Z,7.91
2019-02-08T10:32:28.917Z,7.81
2019-02-08T10:33:29.302Z,7.91
2019-02-08T10:34:28.871Z,7.86
2019-02-08T10:35:29.381Z,7.99
2019-02-08T10:36:29.116Z,7.87
2019-02-08T10:37:28.811Z,7.96
2019-02-08T10:39:28.867Z,8.10
2019-02-08T10:40:28.869Z,8.01
2019-02-08T10:41:30.738Z,8.06
2019-02-08T10:42:29.199Z,8.06
2019-02-08T10:43:28.709Z,7.99
2019-02-08T10:44:28.717Z,8.05
2019-02-08T10:45:28.764Z,8.09
2019-02-08T10:46:28.669Z,8.09
2019-02-08T10:47:29.087Z,7.98
2019-02-08T10:48:28.755Z,8.04
2019-02-08T10:49:28.769Z,8.13
2019-02-08T10:50:28.783Z,8.16
2019-02-08T10:51:28.626Z,8.16
2019-02-08T10:52:28.896Z,8.05
2019-02-08T10:53:29.498Z,8.19
2019-02-08T10:54:28.818Z,8.16
2019-02-08T10:55:28.496Z,8.10
2019-02-08T10:56:28.426Z,7.92
2019-02-08T10:57:28.710Z,7.92
2019-02-08T10:58:28.360Z,7.83
2019-02-08T10:59:28.711Z,7.91
2019-02-08T11:01:28.346Z,8.06
2019-02-08T11:02:28.365Z,8.12
2019-02-08T11:03:28.293Z,8.12
2019-02-08T11:04:28.214Z,8.13
2019-02-08T11:05:28.783Z,8.16
2019-02-08T11:06:28.246Z,8.19
2019-02-08T11:07:28.359Z,8.24
2019-02-08T11:08:28.718Z,8.34
2019-02-08T11:09:28.906Z,8.38
2019-02-08T11:10:28.158Z,8.31
2019-02-08T11:11:28.511Z,8.42
2019-02-08T11:12:28.074Z,8.44
2019-02-08T11:13:28.314Z,8.35
2019-02-08T11:15:28.306Z,8.50
2019-02-08T11:16:28.667Z,8.59
2019-02-08T11:17:28.347Z,8.83
2019-02-08T11:18:27.908Z,9.16
2019-02-08T11:19:27.926Z,10.03
2019-02-08T11:20:28.013Z,9.87
2019-02-08T11:21:27.920Z,9.85
2019-02-08T11:22:28.057Z,10.43
2019-02-08T11:23:28.213Z,10.05
2019-02-08T11:24:27.837Z,9.57
2019-02-08T11:25:27.820Z,9.42
2019-02-08T11:28:27.805Z,9.57
2019-02-08T11:29:28.120Z,9.62
2019-02-08T11:31:27.715Z,9.47
2019-02-08T11:32:42.577Z,9.44
2019-02-08T11:33:27.612Z,9.30
2019-02-08T11:34:27.577Z,9.45
2019-02-08T11:36:27.593Z,9.57
2019-02-08T11:37:28.215Z,9.42
2019-02-08T11:38:27.511Z,9.32
2019-02-08T11:39:27.512Z,9.22
2019-02-08T11:40:27.509Z,9.41
2019-02-08T11:41:28.533Z,9.42
2019-02-08T11:42:27.508Z,9.54
2019-02-08T11:43:27.575Z,9.44
2019-02-08T11:44:27.526Z,9.40
2019-02-08T11:45:27.953Z,9.52
2019-02-08T11:46:27.792Z,9.55
2019-02-08T11:48:28.156Z,9.47
2019-02-08T11:49:27.319Z,9.62
2019-02-08T11:51:27.328Z,9.48
2019-02-08T11:52:27.519Z,9.42
2019-02-08T11:53:27.411Z,9.52
2019-02-08T11:54:27.232Z,9.69
2019-02-08T11:55:27.162Z,9.69
2019-02-08T11:56:29.967Z,9.73
2019-02-08T11:57:27.117Z,9.70
2019-02-08T11:58:27.449Z,9.70
2019-02-08T11:59:27.331Z,9.63
2019-02-08T12:00:27.126Z,9.65
2019-02-08T12:01:27.038Z,9.60
2019-02-08T12:02:27.066Z,9.60
2019-02-08T12:03:27.025Z,9.78
2019-02-08T12:04:27.342Z,9.75
2019-02-08T12:05:27.032Z,9.66
2019-02-08T12:06:26.949Z,9.70
2019-02-08T12:07:26.930Z,9.73
2019-02-08T12:08:26.970Z,9.77
2019-02-08T12:09:26.881Z,9.84
2019-02-08T12:10:27.172Z,9.84
2019-02-08T12:11:26.894Z,9.99
2019-02-08T12:12:26.982Z,9.88
2019-02-08T12:13:27.169Z,9.91
2019-02-08T12:14:26.780Z,9.85
2019-02-08T12:15:27.316Z,9.75
2019-02-08T12:16:27.150Z,9.80
2019-02-08T12:18:26.799Z,9.83
2019-02-08T12:19:26.689Z,9.77
2019-02-08T12:20:26.817Z,9.73
2019-02-08T12:21:27.033Z,9.81
2019-02-08T12:23:28.028Z,9.93
2019-02-08T12:24:26.570Z,9.83
2019-02-08T12:25:26.906Z,9.78
2019-02-08T12:28:26.656Z,9.83
2019-02-08T12:30:26.456Z,9.72
2019-02-08T12:32:26.415Z,9.73
2019-02-08T12:33:26.461Z,9.91
2019-02-08T12:34:26.501Z,9.90
2019-02-08T12:35:27.072Z,9.91
2019-02-08T12:36:26.329Z,9.88
2019-02-08T12:37:26.316Z,10.01
2019-02-08T12:38:26.417Z,9.96
2019-02-08T12:39:26.326Z,9.93
2019-02-08T12:40:26.354Z,9.94
2019-02-08T12:41:26.650Z,9.94
2019-02-08T12:42:26.291Z,9.84
2019-02-08T12:43:26.580Z,9.91
2019-02-08T12:44:26.750Z,9.83
2019-02-08T12:45:26.665Z,9.77
2019-02-08T12:47:26.807Z,9.80
2019-02-08T12:48:26.156Z,9.78
2019-02-08T12:49:26.167Z,9.77
2019-02-08T12:50:26.096Z,9.81
2019-02-08T12:52:26.279Z,9.80
2019-02-08T12:53:26.404Z,9.83
2019-02-08T12:54:25.968Z,9.94
2019-02-08T12:55:25.992Z,9.90
2019-02-08T12:56:25.993Z,9.96
2019-02-08T12:58:26.724Z,9.93
2019-02-08T12:59:26.318Z,9.93
2019-02-08T13:03:25.837Z,9.85
2019-02-08T13:04:25.951Z,9.83
2019-02-08T13:05:26.285Z,9.80
2019-02-08T13:06:25.775Z,9.83
2019-02-08T13:07:25.682Z,9.85
2019-02-08T13:08:25.706Z,9.83
2019-02-08T13:09:25.744Z,9.87
2019-02-08T13:10:25.702Z,9.81
2019-02-08T13:13:25.930Z,9.72
2019-02-08T13:15:25.582Z,9.78
2019-02-08T13:16:25.505Z,9.73
2019-02-08T13:17:25.611Z,9.81
2019-02-08T13:18:25.489Z,9.85
2019-02-08T13:19:25.978Z,9.80
2019-02-08T13:20:26.110Z,9.81
2019-02-08T13:22:25.512Z,9.87
2019-02-08T13:23:25.638Z,9.90
2019-02-08T13:24:25.333Z,9.80
2019-02-08T13:25:25.739Z,9.81
2019-02-08T13:26:26.083Z,9.75
2019-02-08T13:27:25.986Z,9.78
2019-02-08T13:28:25.550Z,9.70
2019-02-08T13:30:25.400Z,9.66
2019-02-08T13:31:25.561Z,9.69
2019-02-08T13:32:25.172Z,9.73
2019-02-08T13:33:25.210Z,9.69
2019-02-08T13:34:25.195Z,9.73
2019-02-08T13:38:25.056Z,9.75
2019-02-08T13:39:25.030Z,9.88
2019-02-08T13:40:25.406Z,9.84
2019-02-08T13:41:25.140Z,9.81
2019-02-08T13:42:25.163Z,9.84
2019-02-08T13:43:25.682Z,9.80
2019-02-08T13:44:25.698Z,9.78
2019-02-08T13:45:25.864Z,9.94
2019-02-08T13:46:25.077Z,9.88
2019-02-08T13:48:24.841Z,9.91
2019-02-08T13:49:25.609Z,9.87
2019-02-08T13:50:24.838Z,9.99
2019-02-08T13:51:24.904Z,9.93
2019-02-08T13:52:26.048Z,9.90
2019-02-08T13:53:25.164Z,9.90
2019-02-08T13:55:25.024Z,9.81
2019-02-08T13:56:24.664Z,9.80
2019-02-08T13:57:24.672Z,9.77
2019-02-08T13:58:24.643Z,9.81
2019-02-08T13:59:24.617Z,9.83
2019-02-08T14:00:24.589Z,9.88
2019-02-08T14:01:24.923Z,9.80
2019-02-08T14:02:24.732Z,9.93
2019-02-08T14:03:25.213Z,9.88
2019-02-08T14:04:24.487Z,9.91
2019-02-08T14:06:24.551Z,9.93
2019-02-08T14:07:24.894Z,9.91
2019-02-08T14:08:24.464Z,9.88
2019-02-08T14:11:24.367Z,9.87
2019-02-08T14:12:24.347Z,9.91
2019-02-08T14:13:24.697Z,9.87
2019-02-08T14:14:24.337Z,9.85
2019-02-08T14:15:24.419Z,9.91
2019-02-08T14:16:24.481Z,9.85
2019-02-08T14:17:24.330Z,9.85
2019-02-08T14:18:24.265Z,9.80
2019-02-08T14:19:24.640Z,9.70
2019-02-08T14:20:24.230Z,9.69
2019-02-08T14:21:24.147Z,9.66
2019-02-08T14:22:24.842Z,9.69
2019-02-08T14:23:24.582Z,9.72
2019-02-08T14:24:24.081Z,9.72
2019-02-08T14:26:24.132Z,9.73
2019-02-08T14:27:24.055Z,9.73
2019-02-08T14:28:24.183Z,9.69
2019-02-08T14:29:24.061Z,9.63
2019-02-08T14:30:24.166Z,9.67
2019-02-08T14:37:24.671Z,9.52
2019-02-08T14:38:23.936Z,9.51
2019-02-08T14:39:23.956Z,9.57
2019-02-08T14:40:23.753Z,9.51
2019-02-08T14:41:23.795Z,9.50
2019-02-08T14:42:23.724Z,9.51
2019-02-08T14:43:24.039Z,9.44
2019-02-08T14:45:24.382Z,9.37
2019-02-08T14:46:23.649Z,9.47
2019-02-08T14:47:23.612Z,9.45
2019-02-08T14:48:24.060Z,9.42
2019-02-08T14:49:23.980Z,9.44
2019-02-08T14:50:23.618Z,9.45
2019-02-08T14:51:23.642Z,9.42
2019-02-08T14:52:23.511Z,9.42
2019-02-08T14:53:23.831Z,9.40
2019-02-08T14:54:23.469Z,9.42
2019-02-08T14:55:24.076Z,9.42
2019-02-08T14:57:23.747Z,9.23
2019-02-08T14:58:23.446Z,9.24
2019-02-08T14:59:24.699Z,9.29
2019-02-08T15:01:23.619Z,9.30
2019-02-08T15:02:23.597Z,9.30
2019-02-08T15:04:24.310Z,9.22
2019-02-08T15:05:23.233Z,9.29
2019-02-08T15:06:23.281Z,9.32
2019-02-08T15:10:23.112Z,9.19
2019-02-08T15:11:23.162Z,9.19
2019-02-08T15:14:23.420Z,9.26
2019-02-08T15:15:22.992Z,9.24
2019-02-08T15:16:23.048Z,9.14
2019-02-08T15:17:23.053Z,9.22
2019-02-08T15:18:23.042Z,9.22
2019-02-08T15:19:23.015Z,9.16
2019-02-08T15:20:23.306Z,9.14
2019-02-08T15:21:22.925Z,9.15
2019-02-08T15:22:22.937Z,9.18
2019-02-08T15:24:22.823Z,9.08
2019-02-08T15:25:22.778Z,9.18
2019-02-08T15:26:23.265Z,9.23
2019-02-08T15:27:24.251Z,9.26
2019-02-08T15:29:22.693Z,9.14
2019-02-08T15:30:22.684Z,9.22
2019-02-08T15:31:23.004Z,9.22
2019-02-08T15:32:23.207Z,9.26
2019-02-08T15:33:23.134Z,9.22
2019-02-08T15:35:22.967Z,9.11
2019-02-08T15:36:22.708Z,9.15